createdAt,value
2018-09-29T00:01:07.750Z,102087.52
2018-09-29T00:03:35.773Z,102085.84
2018-09-29T00:06:03.803Z,102088.51
2018-09-29T00:08:31.819Z,102087.25
2018-09-29T00:10:59.890Z,102075.34
2018-09-29T00:13:27.912Z,102076.72
2018-09-29T00:15:55.927Z,102068.81
2018-09-29T00:18:23.933Z,102066.58
2018-09-29T00:20:51.985Z,102067.50
2018-09-29T00:23:20.982Z,102068.88
2018-09-29T00:25:49.890Z,102067.90
2018-09-29T00:28:17.909Z,102066.77
2018-09-29T00:30:46.001Z,102069.53
2018-09-29T00:33:14.050Z,102065.08
2018-09-29T00:35:42.076Z,102066.36
2018-09-29T00:38:10.078Z,102058.98
2018-09-29T00:40:38.129Z,102068.84
2018-09-29T00:43:06.142Z,102063.48
2018-09-29T00:45:34.174Z,102064.61
2018-09-29T00:48:02.193Z,102066.58
2018-09-29T00:50:30.241Z,102061.78
2018-09-29T00:52:58.245Z,102061.36
2018-09-29T00:55:26.254Z,102055.78
2018-09-29T00:57:54.256Z,102063.62
2018-09-29T01:00:22.274Z,102065.22
2018-09-29T01:02:50.265Z,102066.48
2018-09-29T01:05:18.265Z,102068.45
2018-09-29T01:07:46.284Z,102069.30
2018-09-29T01:10:14.290Z,102073.08
2018-09-29T01:12:42.305Z,102073.05
2018-09-29T01:15:10.320Z,102071.94
2018-09-29T01:17:38.324Z,102070.36
2018-09-29T01:20:06.341Z,102077.22
2018-09-29T01:22:34.341Z,102078.97
2018-09-29T01:25:02.359Z,102072.22
2018-09-29T01:27:30.357Z,102071.78
2018-09-29T01:29:58.366Z,102074.42
2018-09-29T01:32:26.373Z,102074.39
2018-09-29T01:34:54.381Z,102066.42
2018-09-29T01:37:22.398Z,102077.77
2018-09-29T01:39:50.414Z,102089.62
2018-09-29T01:42:18.425Z,102089.25
2018-09-29T01:44:46.967Z,102088.92
2018-09-29T01:47:14.998Z,102080.31
2018-09-29T01:49:43.032Z,102080.72
2018-09-29T01:52:11.042Z,102078.63
2018-09-29T01:54:39.058Z,102068.97
2018-09-29T01:57:07.078Z,102073.27
2018-09-29T01:59:35.111Z,102070.18
2018-09-29T02:02:03.118Z,102075.36
2018-09-29T02:04:31.130Z,102068.52
2018-09-29T02:06:59.138Z,102065.62
2018-09-29T02:09:27.192Z,102068.80
2018-09-29T02:11:55.242Z,102069.88
2018-09-29T02:14:24.357Z,102065.02
2018-09-29T02:16:52.369Z,102068.18
2018-09-29T02:19:20.386Z,102077.75
2018-09-29T02:21:48.464Z,102070.27
2018-09-29T02:24:16.584Z,102069.12
2018-09-29T02:26:44.584Z,102070.55
2018-09-29T02:29:12.622Z,102066.16
2018-09-29T02:31:40.685Z,102064.83
2018-09-29T02:34:08.683Z,102060.75
2018-09-29T02:36:36.708Z,102057.22
2018-09-29T02:39:08.166Z,102058.55
2018-09-29T02:41:36.189Z,102060.77
2018-09-29T02:44:04.242Z,102055.50
2018-09-29T02:46:32.253Z,102049.70
2018-09-29T02:49:00.274Z,102057.58
2018-09-29T02:51:28.289Z,102056.30
2018-09-29T02:53:56.318Z,102051.49
2018-09-29T02:56:24.350Z,102052.38
2018-09-29T02:58:52.559Z,102049.72
2018-09-29T03:01:20.575Z,102044.39
2018-09-29T03:03:48.684Z,102050.25
2018-09-29T03:06:16.756Z,102045.88
2018-09-29T03:08:44.828Z,102047.29
2018-09-29T03:11:12.847Z,102049.04
2018-09-29T03:13:41.949Z,102050.30
2018-09-29T03:16:09.994Z,102046.72
2018-09-29T03:18:38.032Z,102053.38
2018-09-29T03:21:06.107Z,102059.54
2018-09-29T03:23:34.125Z,102061.02
2018-09-29T03:26:02.122Z,102067.15
2018-09-29T03:28:36.961Z,102065.41
2018-09-29T03:31:05.006Z,102068.39
2018-09-29T03:33:33.051Z,102072.34
2018-09-29T03:36:01.066Z,102070.58
2018-09-29T03:38:29.115Z,102073.81
2018-09-29T03:40:57.152Z,102075.05
2018-09-29T03:43:25.222Z,102066.97
2018-09-29T03:45:53.265Z,102068.17
2018-09-29T03:48:21.373Z,102072.48
2018-09-29T03:50:49.404Z,102072.40
2018-09-29T03:53:17.579Z,102067.15
2018-09-29T03:55:45.610Z,102065.07
2018-09-29T03:58:13.651Z,102058.55
2018-09-29T04:00:41.679Z,102057.98
2018-09-29T04:03:09.715Z,102065.95
2018-09-29T04:05:37.726Z,102060.77
2018-09-29T04:08:05.763Z,102054.91
2018-09-29T04:10:33.819Z,102058.45
2018-09-29T04:13:01.836Z,102056.67
2018-09-29T04:15:29.900Z,102049.55
2018-09-29T04:17:58.115Z,102061.39
2018-09-29T04:20:26.162Z,102064.92
2018-09-29T04:22:54.174Z,102061.39
2018-09-29T04:25:22.288Z,102074.64
2018-09-29T04:27:50.353Z,102071.51
2018-09-29T04:30:18.394Z,102074.11
2018-09-29T04:32:46.424Z,102072.51
2018-09-29T04:35:14.486Z,102076.33
2018-09-29T04:37:42.539Z,102075.56
2018-09-29T04:40:10.552Z,102077.80
2018-09-29T04:42:38.588Z,102076.11
2018-09-29T04:45:06.622Z,102072.20
2018-09-29T04:47:34.658Z,102078.73
2018-09-29T04:50:02.720Z,102071.72
2018-09-29T04:52:30.754Z,102075.34
2018-09-29T04:54:58.799Z,102077.89
2018-09-29T04:57:26.834Z,102073.34
2018-09-29T04:59:54.882Z,102080.74
2018-09-29T05:02:22.955Z,102079.52
2018-09-29T05:04:51.054Z,102085.23
2018-09-29T05:07:19.169Z,102082.70
2018-09-29T05:09:47.282Z,102088.79
2018-09-29T05:12:15.336Z,102085.77
2018-09-29T05:14:43.363Z,102091.06
2018-09-29T05:17:11.379Z,102090.83
2018-09-29T05:19:39.406Z,102082.81
2018-09-29T05:22:07.551Z,102093.20
2018-09-29T05:24:35.553Z,102094.63
2018-09-29T05:27:03.594Z,102086.70
2018-09-29T05:29:31.673Z,102089.56
2018-09-29T05:31:59.713Z,102092.64
2018-09-29T05:34:27.757Z,102087.23
2018-09-29T05:36:55.882Z,102086.28
2018-09-29T05:39:23.914Z,102088.31
2018-09-29T05:41:51.946Z,102083.95
2018-09-29T05:44:19.998Z,102083.73
2018-09-29T05:46:48.009Z,102084.38
2018-09-29T05:49:16.025Z,102083.69
2018-09-29T05:51:44.142Z,102078.43
2018-09-29T05:54:12.203Z,102082.31
2018-09-29T05:56:40.229Z,102084.34
2018-09-29T05:59:08.263Z,102086.89
2018-09-29T06:01:36.306Z,102089.27
2018-09-29T06:04:04.341Z,102087.87
2018-09-29T06:06:33.405Z,102083.13
2018-09-29T06:09:02.517Z,102087.15
2018-09-29T06:11:30.536Z,102100.87
2018-09-29T06:13:58.853Z,102109.52
2018-09-29T06:16:26.923Z,102113.07
2018-09-29T06:18:55.018Z,102118.69
2018-09-29T06:21:23.030Z,102110.09
2018-09-29T06:23:51.070Z,102105.79
2018-09-29T06:26:19.171Z,102106.52
2018-09-29T06:28:47.279Z,102111.25
2018-09-29T06:31:15.345Z,102111.69
2018-09-29T06:33:43.411Z,102117.03
2018-09-29T06:36:11.534Z,102107.14
2018-09-29T06:38:39.620Z,102112.20
2018-09-29T06:41:07.669Z,102114.31
2018-09-29T06:43:35.715Z,102113.64
2018-09-29T06:46:03.746Z,102114.13
2018-09-29T06:48:31.853Z,102105.70
2018-09-29T06:50:59.869Z,102099.36
2018-09-29T06:53:27.934Z,102101.91
2018-09-29T06:55:55.969Z,102103.23
2018-09-29T06:58:23.994Z,102104.91
2018-09-29T07:00:52.034Z,102109.15
2018-09-29T07:03:21.087Z,102110.91
2018-09-29T07:05:49.300Z,102110.48
2018-09-29T07:08:17.334Z,102106.62
2018-09-29T07:10:45.389Z,102104.08
2018-09-29T07:13:13.478Z,102113.95
2018-09-29T07:15:41.517Z,102113.91
2018-09-29T07:18:09.599Z,102119.07
2018-09-29T07:20:37.714Z,102123.40
2018-09-29T07:23:05.742Z,102129.16
2018-09-29T07:25:33.942Z,102131.61
2018-09-29T07:28:01.947Z,102132.78
2018-09-29T07:30:30.001Z,102134.98
2018-09-29T07:32:58.065Z,102137.00
2018-09-29T07:35:26.114Z,102136.13
2018-09-29T07:37:54.251Z,102132.88
2018-09-29T07:40:22.282Z,102137.74
2018-09-29T07:42:50.354Z,102148.19
2018-09-29T07:45:18.422Z,102155.23
2018-09-29T07:47:46.487Z,102156.90
2018-09-29T07:50:14.585Z,102157.12
2018-09-29T07:52:43.634Z,102156.49
2018-09-29T07:55:11.717Z,102156.61
2018-09-29T07:57:39.725Z,102153.08
2018-09-29T08:00:07.914Z,102144.48
2018-09-29T08:02:35.975Z,102150.23
2018-09-29T08:05:04.013Z,102137.16
2018-09-29T08:07:32.035Z,102156.04
2018-09-29T08:10:00.115Z,102158.97
2018-09-29T08:12:28.259Z,102161.86
2018-09-29T08:14:56.395Z,102165.50
2018-09-29T08:17:24.430Z,102173.88
2018-09-29T08:19:52.502Z,102173.55
2018-09-29T08:22:20.545Z,102180.50
2018-09-29T08:24:48.594Z,102175.12
2018-09-29T08:27:16.604Z,102173.86
2018-09-29T08:29:44.700Z,102176.60
2018-09-29T08:32:12.784Z,102173.64
2018-09-29T08:34:40.773Z,102178.66
2018-09-29T08:37:08.771Z,102182.48
2018-09-29T08:39:36.805Z,102180.92
2018-09-29T08:42:04.841Z,102171.20
2018-09-29T08:44:32.878Z,102177.36
2018-09-29T08:47:00.906Z,102164.63
2018-09-29T08:49:29.927Z,102177.95
2018-09-29T08:51:57.946Z,102171.34
2018-09-29T08:54:25.979Z,102174.91
2018-09-29T08:56:54.015Z,102178.40
2018-09-29T08:59:22.065Z,102172.44
2018-09-29T09:01:50.078Z,102171.95
2018-09-29T09:04:18.145Z,102169.91
2018-09-29T09:06:47.254Z,102164.03
2018-09-29T09:09:15.327Z,102164.17
2018-09-29T09:11:43.356Z,102160.34
2018-09-29T09:14:11.670Z,102163.02
2018-09-29T09:16:39.681Z,102165.41
2018-09-29T09:19:07.742Z,102164.02
2018-09-29T09:21:35.811Z,102170.89
2018-09-29T09:24:03.846Z,102166.35
2018-09-29T09:26:31.880Z,102163.95
2018-09-29T09:28:59.930Z,102168.91
2018-09-29T09:31:28.010Z,102162.73
2018-09-29T09:33:56.085Z,102160.38
2018-09-29T09:36:24.121Z,102155.98
2018-09-29T09:38:52.181Z,102143.09
2018-09-29T09:41:20.233Z,102140.42
2018-09-29T09:43:48.303Z,102139.05
2018-09-29T09:46:16.395Z,102133.16
2018-09-29T09:48:44.438Z,102133.09
2018-09-29T09:51:12.485Z,102134.58
2018-09-29T09:53:40.499Z,102124.93
2018-09-29T09:56:08.595Z,102118.55
2018-09-29T09:58:37.267Z,102121.98
2018-09-29T10:01:10.865Z,102125.47
2018-09-29T10:03:38.937Z,102108.86
2018-09-29T10:06:06.966Z,102107.82
2018-09-29T10:08:35.018Z,102099.59
2018-09-29T10:11:03.057Z,102090.80
2018-09-29T10:13:31.092Z,102092.23
2018-09-29T10:15:59.175Z,102088.57
2018-09-29T10:18:27.199Z,102090.67
2018-09-29T10:20:55.246Z,102085.81
2018-09-29T10:23:23.287Z,102080.27
2018-09-29T10:25:51.359Z,102085.88
2018-09-29T10:28:19.369Z,102072.78
2018-09-29T10:30:47.459Z,102076.72
2018-09-29T10:33:15.465Z,102074.32
2018-09-29T10:35:43.486Z,102071.05
2018-09-29T10:38:11.497Z,102070.30
2018-09-29T10:40:39.565Z,102057.80
2018-09-29T10:43:07.605Z,102059.49
2018-09-29T10:45:35.674Z,102058.26
2018-09-29T10:48:03.703Z,102052.30
2018-09-29T10:50:31.731Z,102051.45
2018-09-29T10:52:59.780Z,102038.36
2018-09-29T10:55:27.914Z,102042.78
2018-09-29T10:57:56.002Z,102036.97
2018-09-29T11:00:24.118Z,102046.83
2018-09-29T11:02:52.154Z,102030.70
2018-09-29T11:05:20.193Z,102027.25
2018-09-29T11:07:48.232Z,102026.16
2018-09-29T11:10:16.254Z,102029.23
2018-09-29T11:12:44.298Z,102021.46
2018-09-29T11:15:12.340Z,102015.09
2018-09-29T11:17:40.370Z,102014.28
2018-09-29T11:20:08.417Z,102015.55
2018-09-29T11:22:36.484Z,102014.09
2018-09-29T11:25:04.574Z,102011.19
2018-09-29T11:27:32.674Z,102006.48
2018-09-29T11:30:00.698Z,102007.81
2018-09-29T11:32:28.778Z,102002.00
2018-09-29T11:34:56.806Z,101996.61
2018-09-29T11:37:24.821Z,101988.60
2018-09-29T11:39:52.848Z,102001.95
2018-09-29T11:42:20.910Z,101995.88
2018-09-29T11:44:49.018Z,101982.37
2018-09-29T11:47:16.999Z,101980.30
2018-09-29T11:49:45.018Z,101966.80
2018-09-29T11:52:13.054Z,101961.27
2018-09-29T11:54:41.075Z,101956.91
2018-09-29T11:57:09.145Z,101956.45
2018-09-29T11:59:37.189Z,101947.64
2018-09-29T12:02:05.237Z,101951.33
2018-09-29T12:04:33.220Z,101949.98
2018-09-29T12:07:01.317Z,101940.78
2018-09-29T12:09:29.293Z,101928.64
2018-09-29T12:11:57.388Z,101922.18
2018-09-29T12:14:25.578Z,101919.82
2018-09-29T12:16:53.639Z,101919.88
2018-09-29T12:19:21.755Z,101914.61
2018-09-29T12:21:49.793Z,101910.01
2018-09-29T12:24:17.831Z,101911.70
2018-09-29T12:26:45.856Z,101910.19
2018-09-29T12:29:13.879Z,101901.37
2018-09-29T12:31:41.940Z,101901.64
2018-09-29T12:34:09.965Z,101897.81
2018-09-29T12:36:38.046Z,101893.06
2018-09-29T12:39:07.422Z,101885.16
2018-09-29T12:41:35.478Z,101890.98
2018-09-29T12:44:03.492Z,101891.63
2018-09-29T12:46:31.570Z,101888.47
2018-09-29T12:48:59.694Z,101876.81
2018-09-29T12:51:27.805Z,101869.55
2018-09-29T12:53:56.339Z,101873.02
2018-09-29T12:56:24.568Z,101863.84
2018-09-29T12:58:52.730Z,101862.83
2018-09-29T13:01:20.868Z,101857.14
2018-09-29T13:03:48.910Z,101859.53
2018-09-29T13:06:16.977Z,101853.59
2018-09-29T13:08:45.320Z,101854.35
2018-09-29T13:11:13.371Z,101851.22
2018-09-29T13:13:41.427Z,101847.38
2018-09-29T13:16:09.566Z,101842.73
2018-09-29T13:18:37.769Z,101836.99
2018-09-29T13:21:05.806Z,101832.48
2018-09-29T13:23:33.837Z,101834.29
2018-09-29T13:26:02.154Z,101830.46
2018-09-29T13:28:30.273Z,101828.27
2018-09-29T13:30:58.458Z,101820.95
2018-09-29T13:33:26.549Z,101819.69
2018-09-29T13:35:54.785Z,101818.72
2018-09-29T13:38:23.045Z,101819.73
2018-09-29T13:40:51.085Z,101817.22
2018-09-29T13:43:19.363Z,101813.70
2018-09-29T13:45:47.379Z,101820.88
2018-09-29T13:48:15.427Z,101820.14
2018-09-29T13:50:43.465Z,101819.15
2018-09-29T13:53:11.754Z,101812.86
2018-09-29T13:55:39.782Z,101811.94
2018-09-29T13:58:07.872Z,101807.55
2018-09-29T14:00:35.880Z,101800.75
2018-09-29T14:03:03.926Z,101802.06
2018-09-29T14:05:31.988Z,101802.02
2018-09-29T14:08:00.039Z,101792.98
2018-09-29T14:10:28.094Z,101793.05
2018-09-29T14:12:56.337Z,101790.64
2018-09-29T14:15:24.440Z,101787.66
2018-09-29T14:17:52.497Z,101777.31
2018-09-29T14:20:20.554Z,101773.11
2018-09-29T14:22:48.597Z,101766.69
2018-09-29T14:25:17.768Z,101761.30
2018-09-29T14:27:45.924Z,101762.78
2018-09-29T14:30:14.124Z,101760.19
2018-09-29T14:32:42.211Z,101758.78
2018-09-29T14:35:10.425Z,101750.41
2018-09-29T14:37:39.557Z,101747.02
2018-09-29T14:40:07.773Z,101740.98
2018-09-29T14:42:35.855Z,101735.56
2018-09-29T14:45:04.117Z,101736.44
2018-09-29T14:47:32.409Z,101730.29
2018-09-29T14:50:00.450Z,101728.45
2018-09-29T14:52:28.555Z,101726.99
2018-09-29T14:54:56.562Z,101724.20
2018-09-29T14:57:24.669Z,101719.56
2018-09-29T14:59:52.721Z,101719.28
2018-09-29T15:02:20.793Z,101717.44
2018-09-29T15:04:48.821Z,101718.48
2018-09-29T15:07:16.846Z,101713.06
2018-09-29T15:09:44.935Z,101714.69
2018-09-29T15:12:12.991Z,101709.26
2018-09-29T15:14:41.161Z,101704.55
2018-09-29T15:17:09.269Z,101700.42
2018-09-29T15:19:37.316Z,101697.03
2018-09-29T15:22:05.654Z,101690.66
2018-09-29T15:24:33.790Z,101696.42
2018-09-29T15:27:01.928Z,101688.64
2018-09-29T15:29:30.280Z,101680.35
2018-09-29T15:31:58.424Z,101684.61
2018-09-29T15:34:26.433Z,101679.47
2018-09-29T15:36:54.516Z,101677.16
2018-09-29T15:39:22.546Z,101676.66
2018-09-29T15:41:50.635Z,101673.34
2018-09-29T15:44:18.733Z,101673.95
2018-09-29T15:46:46.749Z,101665.19
2018-09-29T15:49:14.773Z,101667.77
2018-09-29T15:51:42.829Z,101666.30
2018-09-29T15:54:11.030Z,101665.27
2018-09-29T15:56:39.100Z,101664.17
2018-09-29T15:59:07.179Z,101663.45
2018-09-29T16:01:35.289Z,101656.98
2018-09-29T16:04:03.342Z,101655.78
2018-09-29T16:06:31.396Z,101658.69
2018-09-29T16:08:59.709Z,101659.25
2018-09-29T16:11:27.747Z,101658.52
2018-09-29T16:13:55.790Z,101660.36
2018-09-29T16:16:23.900Z,101652.63
2018-09-29T16:18:51.882Z,101648.08
2018-09-29T16:21:19.934Z,101646.41
2018-09-29T16:23:48.013Z,101647.39
2018-09-29T16:26:16.070Z,101647.14
2018-09-29T16:28:44.299Z,101641.73
2018-09-29T16:31:12.486Z,101639.69
2018-09-29T16:33:40.511Z,101644.45
2018-09-29T16:36:08.550Z,101639.02
2018-09-29T16:38:36.588Z,101636.05
2018-09-29T16:41:04.713Z,101639.97
2018-09-29T16:43:32.797Z,101638.05
2018-09-29T16:46:00.782Z,101638.53
2018-09-29T16:48:28.850Z,101633.89
2018-09-29T16:50:56.949Z,101636.55
2018-09-29T16:53:24.994Z,101629.49
2018-09-29T16:55:53.046Z,101636.25
2018-09-29T16:58:21.110Z,101633.56
2018-09-29T17:00:49.289Z,101632.41
2018-09-29T17:03:17.373Z,101630.79
2018-09-29T17:05:45.411Z,101633.30
2018-09-29T17:08:13.446Z,101627.97
2018-09-29T17:10:41.494Z,101631.05
2018-09-29T17:13:09.510Z,101620.30
2018-09-29T17:15:37.545Z,101625.41
2018-09-29T17:18:05.586Z,101619.91
2018-09-29T17:20:33.654Z,101621.42
2018-09-29T17:23:01.721Z,101620.89
2018-09-29T17:25:29.745Z,101618.23
2018-09-29T17:27:57.785Z,101623.30
2018-09-29T17:30:25.805Z,101624.02
2018-09-29T17:32:53.841Z,101623.61
2018-09-29T17:35:21.946Z,101618.11
2018-09-29T17:37:49.990Z,101618.39
2018-09-29T17:40:18.018Z,101621.61
2018-09-29T17:42:46.038Z,101613.19
2018-09-29T17:45:14.071Z,101614.97
2018-09-29T17:47:42.115Z,101613.71
2018-09-29T17:50:10.492Z,101606.31
2018-09-29T17:52:38.572Z,101596.94
2018-09-29T17:55:06.619Z,101607.90
2018-09-29T17:57:34.649Z,101595.63
2018-09-29T18:00:02.714Z,101597.52
2018-09-29T18:02:30.780Z,101601.14
2018-09-29T18:04:58.987Z,101590.78
2018-09-29T18:07:27.068Z,101587.38
2018-09-29T18:09:55.130Z,101599.86
2018-09-29T18:12:23.146Z,101604.03
2018-09-29T18:14:51.249Z,101598.58
2018-09-29T18:17:19.306Z,101593.06
2018-09-29T18:19:47.430Z,101596.53
2018-09-29T18:22:15.638Z,101591.38
2018-09-29T18:24:43.727Z,101594.00
2018-09-29T18:27:12.038Z,101586.52
2018-09-29T18:29:40.106Z,101589.22
2018-09-29T18:32:08.643Z,101578.86
2018-09-29T18:34:36.823Z,101577.42
2018-09-29T18:37:05.010Z,101582.39
2018-09-29T18:39:33.135Z,101578.08
2018-09-29T18:42:01.296Z,101578.58
2018-09-29T18:44:29.354Z,101572.63
2018-09-29T18:46:57.646Z,101569.13
2018-09-29T18:49:25.867Z,101572.41
2018-09-29T18:51:54.310Z,101580.63
2018-09-29T18:54:22.395Z,101579.31
2018-09-29T18:56:50.650Z,101578.71
2018-09-29T18:59:18.782Z,101577.56
2018-09-29T19:01:47.136Z,101577.91
2018-09-29T19:04:15.314Z,101573.63
2018-09-29T19:06:43.489Z,101570.13
2018-09-29T19:09:13.084Z,101570.83
2018-09-29T19:11:41.972Z,101569.27
2018-09-29T19:14:10.129Z,101570.45
2018-09-29T19:16:38.237Z,101571.22
2018-09-29T19:19:06.700Z,101572.09
2018-09-29T19:21:34.900Z,101574.20
2018-09-29T19:24:03.062Z,101572.95
2018-09-29T19:26:31.169Z,101565.80
2018-09-29T19:28:59.206Z,101565.33
2018-09-29T19:31:27.338Z,101559.02
2018-09-29T19:33:55.470Z,101555.69
2018-09-29T19:36:23.553Z,101560.58
2018-09-29T19:38:51.654Z,101561.72
2018-09-29T19:41:19.816Z,101564.11
2018-09-29T19:43:47.899Z,101568.48
2018-09-29T19:46:16.200Z,101567.12
2018-09-29T19:48:44.343Z,101563.85
2018-09-29T19:51:12.652Z,101561.42
2018-09-29T19:53:40.749Z,101558.52
2018-09-29T19:56:08.893Z,101557.25
2018-09-29T19:58:37.938Z,101557.25
2018-09-29T20:01:06.130Z,101552.69
2018-09-29T20:03:34.203Z,101545.70
2018-09-29T20:06:03.317Z,101543.92
2018-09-29T20:08:31.346Z,101532.72
2018-09-29T20:10:59.404Z,101531.92
2018-09-29T20:13:27.465Z,101531.02
2018-09-29T20:15:55.697Z,101523.15
2018-09-29T20:18:23.757Z,101518.34
2018-09-29T20:20:51.809Z,101516.23
2018-09-29T20:23:19.829Z,101509.36
2018-09-29T20:25:47.838Z,101505.34
2018-09-29T20:28:15.891Z,101504.81
2018-09-29T20:30:43.910Z,101499.21
2018-09-29T20:33:11.962Z,101494.98
2018-09-29T20:35:40.035Z,101488.33
2018-09-29T20:38:08.073Z,101486.69
2018-09-29T20:40:36.294Z,101486.07
2018-09-29T20:43:04.318Z,101485.22
2018-09-29T20:45:32.381Z,101481.90
2018-09-29T20:48:00.401Z,101477.03
2018-09-29T20:50:28.427Z,101474.05
2018-09-29T20:52:56.521Z,101474.58
2018-09-29T20:55:24.598Z,101473.23
2018-09-29T20:57:52.602Z,101474.88
2018-09-29T21:00:20.686Z,101469.84
2018-09-29T21:02:48.710Z,101469.92
2018-09-29T21:05:16.746Z,101460.83
2018-09-29T21:07:44.809Z,101466.95
2018-09-29T21:10:12.833Z,101467.03
2018-09-29T21:12:40.875Z,101467.89
2018-09-29T21:15:08.945Z,101472.52
2018-09-29T21:17:37.010Z,101475.16
2018-09-29T21:20:05.522Z,101473.52
2018-09-29T21:22:33.681Z,101474.58
2018-09-29T21:25:01.696Z,101477.73
2018-09-29T21:27:29.877Z,101475.44
2018-09-29T21:29:57.881Z,101466.40
2018-09-29T21:32:25.938Z,101453.55
2018-09-29T21:34:53.973Z,101455.25
2018-09-29T21:37:21.981Z,101445.78
2018-09-29T21:39:50.001Z,101441.74
2018-09-29T21:42:18.108Z,101434.48
2018-09-29T21:44:46.117Z,101430.20
2018-09-29T21:47:14.158Z,101428.31
2018-09-29T21:49:42.284Z,101422.86
2018-09-29T21:52:10.354Z,101419.56
2018-09-29T21:54:38.424Z,101422.63
2018-09-29T21:57:06.731Z,101416.46
2018-09-29T21:59:34.777Z,101416.98
2018-09-29T22:02:02.777Z,101413.03
2018-09-29T22:04:30.907Z,101413.03
2018-09-29T22:06:58.930Z,101413.69
2018-09-29T22:09:26.975Z,101408.03
2018-09-29T22:11:54.989Z,101408.94
2018-09-29T22:14:23.089Z,101401.03
2018-09-29T22:16:51.162Z,101405.64
2018-09-29T22:19:19.235Z,101396.37
2018-09-29T22:21:47.234Z,101393.92
2018-09-29T22:24:15.304Z,101391.48
2018-09-29T22:26:43.301Z,101390.88
2018-09-29T22:29:11.336Z,101383.77
2018-09-29T22:31:39.397Z,101385.87
2018-09-29T22:34:07.432Z,101377.32
2018-09-29T22:36:35.541Z,101378.25
2018-09-29T22:39:04.340Z,101377.52
2018-09-29T22:41:32.360Z,101368.76
2018-09-29T22:44:00.431Z,101365.33
2018-09-29T22:46:28.482Z,101357.80
2018-09-29T22:48:56.550Z,101349.38
2018-09-29T22:51:24.559Z,101352.67
2018-09-29T22:53:52.603Z,101346.09
2018-09-29T22:56:20.669Z,101351.50
2018-09-29T22:58:48.714Z,101347.16
2018-09-29T23:01:16.847Z,101338.33
2018-09-29T23:03:44.948Z,101340.36
2018-09-29T23:06:12.965Z,101327.48
2018-09-29T23:08:41.013Z,101332.50
2018-09-29T23:11:09.038Z,101335.05
2018-09-29T23:13:37.105Z,101332.88
2018-09-29T23:16:05.153Z,101327.94
2018-09-29T23:18:33.213Z,101324.41
2018-09-29T23:21:01.282Z,101324.97
2018-09-29T23:23:29.341Z,101318.81
2018-09-29T23:25:57.480Z,101319.25
2018-09-29T23:28:25.664Z,101311.16
2018-09-29T23:30:53.673Z,101309.59
2018-09-29T23:33:21.774Z,101312.19
2018-09-29T23:35:49.896Z,101309.02
2018-09-29T23:38:18.046Z,101308.22
2018-09-29T23:40:46.117Z,101307.05
2018-09-29T23:43:14.142Z,101303.23
2018-09-29T23:45:42.179Z,101301.71
2018-09-29T23:48:10.231Z,101303.19
2018-09-29T23:50:38.373Z,101294.31
2018-09-29T23:53:06.425Z,101287.60
2018-09-29T23:55:34.450Z,101289.05
2018-09-29T23:58:02.615Z,101280.83
